Time;durP1;ratioP1;P1;durP2;ratioP2;P2;SDS_P1;SDS_P2;PMS_P1;PMS_P2;Temp;Humidity;BMP_temperature;BMP_pressure;BME280_temperature;BME280_humidity;BME280_pressure;Samples;Min_cycle;Max_cycle;Signal;HPM_P1;HPM_P2
2021/03/22 00:03:20;;;;;;;71.62;36.98;;;;;;;0.59;81.33;98432.50;4050876;85;21234;-87
2021/03/22 00:09:22;;;;;;;64.37;34.27;;;;;;;0.65;81.23;98427.97;4042646;86;21238;-87
2021/03/22 00:15:27;;;;;;;66.95;34.13;;;;;;;0.68;81.20;98442.12;4054471;85;21202;-88
2021/03/22 00:21:29;;;;;;;68.67;35.03;;;;;;;0.70;81.11;98450.69;4067287;86;21233;-89
2021/03/22 00:33:43;;;;;;;56.27;36.77;;;;;;;0.79;81.37;98460.06;4347291;79;28737;-89
2021/03/22 00:39:45;;;;;;;72.50;35.73;;;;;;;0.96;81.06;98459.98;4333576;80;21677;-87
2021/03/22 00:45:47;;;;;;;67.32;34.15;;;;;;;0.86;81.03;98444.97;4330502;81;21215;-87
2021/03/22 00:51:49;;;;;;;65.80;35.23;;;;;;;0.94;81.11;98465.70;4340856;80;21571;-88
2021/03/22 00:57:52;;;;;;;65.92;34.98;;;;;;;0.94;81.11;98465.70;4327249;80;21631;-87
2021/03/22 01:03:54;;;;;;;58.38;30.62;;;;;;;0.91;81.23;98466.92;4354694;81;21234;-88
2021/03/22 01:09:55;;;;;;;65.12;34.45;;;;;;;0.87;81.25;98473.52;4363976;82;21230;-87
2021/03/22 01:15:58;;;;;;;62.03;30.50;;;;;;;0.87;81.36;98469.47;4364447;82;21231;-87
2021/03/22 01:22:02;;;;;;;59.00;31.42;;;;;;;0.86;81.40;98469.22;4328980;80;21589;-87
2021/03/22 01:28:07;;;;;;;58.05;30.32;;;;;;;0.84;81.37;98478.75;4321213;81;21205;-89
2021/03/22 01:34:09;;;;;;;59.35;30.37;;;;;;;0.86;81.45;98483.27;4334627;80;21830;-88
2021/03/22 01:40:28;;;;;;;59.13;30.90;;;;;;;0.79;81.32;98481.07;4343178;81;21271;-88
2021/03/22 01:46:31;;;;;;;65.70;32.58;;;;;;;0.77;81.50;98487.88;4343252;80;21106;-87
2021/03/22 01:52:38;;;;;;;59.70;30.92;;;;;;;0.79;81.72;98494.55;4324550;80;21193;-89
2021/03/22 01:58:41;;;;;;;54.45;30.70;;;;;;;0.81;81.82;98493.67;4332503;81;21319;-88
2021/03/22 02:04:43;;;;;;;55.17;28.60;;;;;;;0.81;81.69;98503.65;4338542;80;21195;-89
2021/03/22 02:10:46;;;;;;;49.20;24.80;;;;;;;0.78;81.89;98497.02;4339907;80;21205;-90
2021/03/22 02:17:13;;;;;;;47.63;25.53;;;;;;;0.75;81.86;98504.36;4335526;80;21220;-89
2021/03/22 02:23:39;;;;;;;25.32;13.45;;;;;;;0.73;81.76;98498.53;4348684;80;22511;-88
2021/03/22 02:30:21;;;;;;;22.95;11.80;;;;;;;0.60;81.66;98490.63;4343656;81;21161;-87
2021/03/22 02:36:34;;;;;;;21.50;11.87;;;;;;;0.59;81.61;98510.61;4330951;82;21150;-87
2021/03/22 02:42:42;;;;;;;16.07;9.73;;;;;;;0.55;81.39;98511.80;4330783;80;21227;-89
2021/03/22 02:48:44;;;;;;;16.97;9.48;;;;;;;0.52;81.17;98515.14;4221607;82;21206;-88
2021/03/22 02:54:57;;;;;;;14.18;8.45;;;;;;;0.50;81.06;98527.36;4179825;83;22064;-89
2021/03/22 03:01:19;;;;;;;12.93;8.48;;;;;;;0.48;81.03;98532.27;4201089;84;21213;-88
2021/03/22 03:07:28;;;;;;;13.88;7.20;;;;;;;0.45;80.75;98538.29;4203567;83;21202;-89
2021/03/22 03:13:30;;;;;;;13.95;7.47;;;;;;;0.41;80.53;98558.33;4244286;83;21211;-87
2021/03/22 03:19:35;;;;;;;16.35;8.53;;;;;;;0.32;80.47;98552.71;4175931;83;21213;-88
2021/03/22 03:25:38;;;;;;;21.90;11.03;;;;;;;0.27;80.47;98567.70;4190338;83;21231;-88
2021/03/22 03:31:39;;;;;;;13.90;7.87;;;;;;;0.24;80.04;98573.16;4189542;83;21204;-87
2021/03/22 03:37:41;;;;;;;14.77;8.33;;;;;;;0.24;80.08;98580.42;4343152;80;21163;-88
2021/03/22 03:43:43;;;;;;;17.70;10.77;;;;;;;0.17;79.59;98581.47;4259583;83;21162;-89
2021/03/22 03:49:45;;;;;;;16.40;11.97;;;;;;;0.15;79.39;98593.10;4342244;80;21185;-88
2021/03/22 03:55:49;;;;;;;20.17;9.83;;;;;;;0.12;79.04;98595.08;4197551;83;21250;-88
2021/03/22 04:01:52;;;;;;;16.82;8.20;;;;;;;0.06;79.06;98598.50;4190699;82;21693;-89
2021/03/22 04:07:55;;;;;;;16.70;8.63;;;;;;;-0.02;78.79;98610.04;4042778;82;41049;-90
2021/03/22 04:13:57;;;;;;;15.63;8.40;;;;;;;-0.03;79.03;98625.39;4000018;87;21899;-87
2021/03/22 04:19:59;;;;;;;17.70;9.53;;;;;;;-0.04;78.92;98635.12;4093738;85;21230;-90
2021/03/22 04:26:05;;;;;;;36.70;14.53;;;;;;;-0.15;78.66;98638.67;4094991;84;21213;-87
2021/03/22 04:32:09;;;;;;;19.70;9.95;;;;;;;-0.21;78.50;98645.30;4102769;85;21154;-87
2021/03/22 04:38:12;;;;;;;35.97;14.70;;;;;;;-0.26;78.33;98651.37;4117661;85;21659;-87
2021/03/22 04:44:14;;;;;;;11.10;6.17;;;;;;;-0.30;78.08;98661.18;4119268;85;21711;-87
2021/03/22 04:50:19;;;;;;;12.60;6.77;;;;;;;-0.32;77.95;98666.06;4118535;85;21192;-87
2021/03/22 04:56:23;;;;;;;15.07;6.33;;;;;;;-0.32;78.02;98667.41;4114660;85;21551;-86
2021/03/22 05:02:25;;;;;;;24.47;14.23;;;;;;;-0.32;78.00;98678.97;4109848;85;21156;-87
2021/03/22 05:08:27;;;;;;;12.40;6.63;;;;;;;-0.35;77.37;98677.45;4118811;84;21647;-90
2021/03/22 05:14:28;;;;;;;13.10;5.70;;;;;;;-0.39;77.66;98681.31;4117022;85;22525;-87
2021/03/22 05:20:35;;;;;;;14.83;5.70;;;;;;;-0.36;77.48;98696.82;4110574;85;21161;-87
2021/03/22 05:26:37;;;;;;;15.97;6.53;;;;;;;-0.33;77.68;98702.15;4118735;85;21633;-87
2021/03/22 05:32:42;;;;;;;23.07;8.37;;;;;;;-0.35;77.92;98709.73;4116856;85;22431;-88
2021/03/22 05:38:44;;;;;;;18.63;8.83;;;;;;;-0.35;78.03;98722.63;4032023;87;21233;-89
2021/03/22 05:44:53;;;;;;;21.27;10.67;;;;;;;-0.35;77.79;98719.94;4031491;87;21395;-88
2021/03/22 05:51:24;;;;;;;31.93;10.83;;;;;;;-0.29;77.80;98727.31;4029496;87;21334;-88
2021/03/22 05:57:46;;;;;;;21.67;9.93;;;;;;;-0.29;77.73;98738.88;4031677;87;21228;-89
2021/03/22 06:03:54;;;;;;;19.97;8.37;;;;;;;-0.26;77.68;98748.20;3986795;87;21168;-86
2021/03/22 06:10:18;;;;;;;12.93;7.23;;;;;;;-0.13;78.12;98752.70;4515766;75;22982;-88
2021/03/22 06:16:36;;;;;;;169.23;74.63;;;;;;;-0.07;77.96;98758.98;4257179;81;21125;-88
2021/03/22 06:22:38;;;;;;;21.53;9.33;;;;;;;-0.03;77.64;98767.20;4283689;81;21171;-87
2021/03/22 06:28:46;;;;;;;20.27;8.90;;;;;;;-0.05;77.35;98772.13;4276909;81;21219;-89
2021/03/22 06:35:01;;;;;;;15.23;7.70;;;;;;;-0.13;77.33;98773.68;4266178;81;21237;-88
2021/03/22 06:41:36;;;;;;;18.90;8.33;;;;;;;-0.15;77.25;98768.34;4273792;81;21849;-87
2021/03/22 06:47:37;;;;;;;17.17;7.87;;;;;;;-0.09;77.20;98780.02;4278214;81;21576;-86
2021/03/22 06:53:50;;;;;;;20.93;8.73;;;;;;;0.20;77.35;98781.37;4275714;81;22250;-87
2021/03/22 07:00:21;;;;;;;16.50;7.72;;;;;;;0.77;76.39;98793.68;4273388;81;21646;-88
2021/03/22 07:06:25;;;;;;;15.65;7.62;;;;;;;1.30;75.27;98790.91;4263594;81;21213;-86
2021/03/22 07:12:38;;;;;;;16.37;5.83;;;;;;;1.30;75.27;98790.91;4234897;82;21190;-89
2021/03/22 07:18:40;;;;;;;17.77;7.30;;;;;;;1.54;74.84;98814.68;4231646;82;21650;-87
2021/03/22 07:24:59;;;;;;;16.97;6.20;;;;;;;1.81;75.15;98812.97;4230750;83;21202;-88
2021/03/22 07:31:09;;;;;;;10.82;4.62;;;;;;;2.35;74.34;98819.44;4233667;83;21182;-88
2021/03/22 07:37:59;;;;;;;11.25;4.25;;;;;;;2.54;73.49;98831.41;4231980;83;21199;-87
2021/03/22 07:44:19;;;;;;;11.12;4.08;;;;;;;2.60;72.30;98836.86;4233602;83;21186;-88
2021/03/22 07:51:00;;;;;;;14.23;6.55;;;;;;;2.94;70.81;98830.45;4229947;81;21608;-88
2021/03/22 07:57:26;;;;;;;9.50;3.83;;;;;;;3.37;71.36;98845.79;4234648;83;22392;-88
2021/03/22 08:04:12;;;;;;;8.20;4.05;;;;;;;3.82;70.73;98835.03;4232560;83;21161;-90
2021/03/22 08:10:41;;;;;;;7.20;3.10;;;;;;;4.15;67.07;98842.56;4266005;81;21207;-88
2021/03/22 08:17:08;;;;;;;12.78;3.70;;;;;;;4.43;68.04;98836.73;4273673;81;21163;-89
2021/03/22 08:23:24;;;;;;;14.35;5.12;;;;;;;4.38;63.95;98841.81;4255643;81;21223;-89
2021/03/22 08:29:33;;;;;;;9.18;3.92;;;;;;;4.19;61.20;98837.49;4268356;81;21218;-91
2021/03/22 08:36:02;;;;;;;26.80;7.47;;;;;;;4.45;58.29;98844.73;4209857;81;36527;-88
2021/03/22 08:42:38;;;;;;;7.70;2.20;;;;;;;4.71;60.77;98847.12;4094325;85;21226;-91
2021/03/22 08:48:40;;;;;;;5.05;2.58;;;;;;;5.08;59.92;98851.36;4121082;85;21625;-91
2021/03/22 08:54:42;;;;;;;9.05;3.25;;;;;;;5.19;57.24;98851.11;4122019;85;21486;-89
2021/03/22 09:00:46;;;;;;;6.08;2.30;;;;;;;5.11;53.76;98854.75;4123654;85;21705;-90
2021/03/22 09:07:15;;;;;;;9.78;2.70;;;;;;;5.83;55.04;98859.17;4124462;85;21804;-90
2021/03/22 09:13:32;;;;;;;7.58;2.58;;;;;;;6.46;54.63;98860.86;4123977;85;21209;-90
2021/03/22 09:19:42;;;;;;;7.12;2.42;;;;;;;7.07;55.05;98858.41;4061978;85;21805;-91
2021/03/22 09:25:55;;;;;;;4.45;1.37;;;;;;;7.69;52.11;98863.07;4119574;85;21773;-90
2021/03/22 09:31:59;;;;;;;3.15;1.45;;;;;;;7.84;48.68;98866.88;4118798;85;21335;-91
2021/03/22 09:38:34;;;;;;;8.10;1.80;;;;;;;8.21;49.33;98859.78;4121728;85;21664;-90
2021/03/22 09:44:57;;;;;;;4.12;1.52;;;;;;;8.72;45.93;98863.04;4120386;85;21257;-89
2021/03/22 09:51:10;;;;;;;4.85;1.50;;;;;;;8.11;46.89;98868.58;3976138;88;21679;-89
2021/03/22 09:57:42;;;;;;;2.58;1.00;;;;;;;8.91;45.47;98856.91;4042464;86;22139;-90
2021/03/22 10:04:08;;;;;;;4.30;1.50;;;;;;;9.70;48.07;98857.61;4122219;85;21241;-89
2021/03/22 10:10:25;;;;;;;2.67;0.75;;;;;;;10.69;45.28;98853.41;4146334;84;21732;-89
2021/03/22 10:16:35;;;;;;;4.67;1.30;;;;;;;9.99;44.49;98860.88;4154579;84;21356;-91
2021/03/22 10:22:38;;;;;;;2.75;1.30;;;;;;;9.89;44.33;98858.03;4157453;84;21932;-91
2021/03/22 10:28:41;;;;;;;7.65;3.25;;;;;;;9.49;45.49;98859.50;4157081;84;21198;-92
2021/03/22 10:34:59;;;;;;;2.65;1.15;;;;;;;10.56;44.53;98850.75;4155970;84;21224;-92
2021/03/22 10:41:04;;;;;;;1.35;0.80;;;;;;;11.54;44.48;98849.25;4153425;84;21570;-90
2021/03/22 10:47:15;;;;;;;4.45;2.00;;;;;;;11.91;42.64;98836.70;4153421;84;21175;-93
2021/03/22 10:53:17;;;;;;;7.08;2.72;;;;;;;11.83;37.96;98836.48;4152827;84;21783;-93
2021/03/22 10:59:38;;;;;;;8.53;1.30;;;;;;;10.12;33.80;98849.13;4158746;84;21344;-92
2021/03/22 11:05:44;;;;;;;4.00;1.37;;;;;;;8.35;37.60;98855.21;4155583;84;21618;-92
2021/03/22 11:11:46;;;;;;;5.87;2.27;;;;;;;7.11;36.00;98857.94;4120101;85;21640;-90
2021/03/22 11:17:51;;;;;;;25.72;9.35;;;;;;;6.10;37.74;98869.23;4033269;86;21208;-93
2021/03/22 11:23:56;;;;;;;4.80;1.50;;;;;;;5.81;38.31;98879.86;4055948;86;21235;-91
2021/03/22 11:30:02;;;;;;;3.80;1.47;;;;;;;5.20;40.26;98883.13;4054030;85;21188;-91
2021/03/22 11:36:17;;;;;;;2.62;1.17;;;;;;;5.09;41.70;98869.80;4054775;86;21356;-91
2021/03/22 11:42:37;;;;;;;2.40;1.22;;;;;;;5.46;42.24;98872.09;4058508;86;21336;-90
2021/03/22 11:48:41;;;;;;;2.62;1.20;;;;;;;5.67;42.53;98882.77;4053378;86;21239;-90
2021/03/22 11:55:06;;;;;;;4.00;1.00;;;;;;;5.51;43.06;98881.33;4055852;85;21724;-90
2021/03/22 12:37:08;;;;;;;5.70;1.30;;;;;;;6.17;44.34;98862.64;3688405;95;21292;-88
2021/03/22 14:04:00;;;;;;;5.90;1.80;;;;;;;6.23;39.51;98861.24;3845311;91;21253;-89
2021/03/22 17:21:09;;;;;;;10.90;5.30;;;;;;;3.00;50.93;99039.52;4491869;77;22911;-87
2021/03/22 17:27:11;;;;;;;17.25;5.50;;;;;;;2.79;51.06;99049.44;4422365;78;21207;-89
2021/03/22 17:33:20;;;;;;;16.55;5.92;;;;;;;2.79;51.46;99041.33;4427768;79;21200;-88
2021/03/22 17:39:22;;;;;;;21.37;9.18;;;;;;;2.80;51.79;99051.59;4431236;80;21177;-86
2021/03/22 17:52:35;;;;;;;28.38;12.47;;;;;;;2.62;52.56;99079.21;4153114;84;21324;-87
2021/03/22 17:58:37;;;;;;;32.55;14.03;;;;;;;2.48;53.16;99088.05;4142486;84;21237;-88
2021/03/22 18:04:39;;;;;;;33.65;14.38;;;;;;;2.33;53.67;99087.20;4149862;84;21257;-88
2021/03/22 18:10:41;;;;;;;34.30;13.98;;;;;;;2.18;54.20;99094.95;4148922;84;21201;-88
2021/03/22 18:16:44;;;;;;;28.90;13.13;;;;;;;1.99;54.79;99112.05;4238513;83;21202;-88
2021/03/22 18:23:00;;;;;;;35.30;15.05;;;;;;;1.70;54.96;99109.91;4156242;84;21163;-87
2021/03/22 18:29:08;;;;;;;42.80;15.75;;;;;;;1.52;55.35;99112.31;4284746;81;21634;-86
2021/03/22 18:35:13;;;;;;;49.83;19.57;;;;;;;1.33;56.34;99126.63;4198928;80;10000197;-88
2021/03/22 18:41:15;;;;;;;51.23;20.63;;;;;;;1.26;56.67;99138.39;4195264;82;21166;-87
2021/03/22 18:47:31;;;;;;;44.05;19.12;;;;;;;1.19;56.98;99148.84;4208103;82;21818;-87
2021/03/22 18:53:40;;;;;;;55.05;20.52;;;;;;;0.98;57.38;99155.85;4199875;82;21192;-87
2021/03/22 18:59:52;;;;;;;48.78;20.45;;;;;;;0.76;57.11;99161.25;4156285;84;21353;-87
2021/03/22 19:06:31;;;;;;;101.00;33.18;;;;;;;0.51;58.02;99171.28;4143929;83;21195;-87
2021/03/22 19:12:36;;;;;;;69.50;27.10;;;;;;;0.44;58.09;99175.74;4187341;83;21179;-88
2021/03/22 19:18:41;;;;;;;65.08;25.70;;;;;;;0.21;58.11;99186.77;4171399;83;21163;-87
2021/03/22 19:24:43;;;;;;;61.73;25.63;;;;;;;0.20;58.72;99190.58;4243473;82;21795;-89
2021/03/22 19:30:45;;;;;;;63.03;25.20;;;;;;;-0.02;59.06;99197.47;4089419;82;10000364;-87
2021/03/22 19:37:00;;;;;;;71.40;27.70;;;;;;;-0.11;59.59;99203.89;4245900;82;21188;-87
2021/03/22 19:43:02;;;;;;;66.40;26.37;;;;;;;-0.10;59.72;99212.20;4413652;79;21777;-87
2021/03/22 19:49:05;;;;;;;78.10;31.10;;;;;;;-0.17;59.92;99216.63;4414396;78;21639;-86
2021/03/22 19:55:26;;;;;;;85.97;32.27;;;;;;;-0.19;59.75;99224.77;4389459;79;21220;-86
2021/03/22 20:01:28;;;;;;;86.83;31.63;;;;;;;-0.27;60.95;99222.77;4389724;79;21186;-86
2021/03/22 20:07:32;;;;;;;70.60;28.90;;;;;;;-0.34;61.04;99223.16;4378925;79;21803;-85
2021/03/22 20:13:49;;;;;;;76.57;30.83;;;;;;;-0.51;60.33;99230.20;4387444;79;21192;-86
2021/03/22 20:20:00;;;;;;;90.60;34.77;;;;;;;-0.65;60.67;99238.80;4380609;79;21244;-85
2021/03/22 20:26:27;;;;;;;87.83;35.40;;;;;;;-0.66;61.38;99246.63;4307943;79;82794;-85
2021/03/22 20:32:46;;;;;;;101.97;40.50;;;;;;;-0.71;61.05;99238.10;4214965;82;21169;-86
2021/03/22 20:39:08;;;;;;;103.70;38.83;;;;;;;-0.77;61.65;99238.48;4224165;82;21207;-86
2021/03/22 20:45:17;;;;;;;106.40;39.83;;;;;;;-0.74;62.17;99253.48;4212966;84;21637;-85
2021/03/22 20:51:20;;;;;;;98.43;36.93;;;;;;;-0.68;62.83;99254.98;4215660;82;22002;-85
2021/03/22 20:57:21;;;;;;;102.13;40.97;;;;;;;-0.63;63.16;99268.34;4201479;83;21207;-85
2021/03/22 21:03:39;;;;;;;102.73;39.37;;;;;;;-0.63;63.08;99256.24;4213460;82;21304;-85
2021/03/22 21:09:40;;;;;;;101.03;39.87;;;;;;;-0.59;63.31;99253.20;4206518;83;21215;-84
2021/03/22 21:15:42;;;;;;;107.13;40.10;;;;;;;-0.64;63.28;99256.55;4201144;82;21206;-84
2021/03/22 21:21:48;;;;;;;94.70;36.87;;;;;;;-0.84;63.81;99260.36;4207566;83;21333;-84
2021/03/22 21:27:50;;;;;;;68.45;28.32;;;;;;;-0.84;63.94;99263.05;4184006;83;21165;-84
2021/03/22 21:33:51;;;;;;;95.37;40.80;;;;;;;-0.89;64.60;99261.00;4095482;83;10000575;-84
2021/03/22 21:40:07;;;;;;;111.23;43.00;;;;;;;-0.93;64.62;99252.72;4196421;83;21224;-83
2021/03/22 21:46:15;;;;;;;122.27;50.00;;;;;;;-1.07;64.71;99260.47;4206032;84;21240;-85
2021/03/22 21:52:26;;;;;;;137.63;54.63;;;;;;;-1.14;64.78;99265.43;4192347;84;21216;-84
2021/03/22 21:58:41;;;;;;;140.33;53.00;;;;;;;-1.25;65.01;99263.42;4206223;83;21169;-84
2021/03/22 22:04:42;;;;;;;157.70;59.90;;;;;;;-1.34;65.31;99269.20;4209217;83;21274;-84
2021/03/22 22:10:44;;;;;;;133.77;52.83;;;;;;;-1.37;65.57;99278.38;4209798;83;21210;-84
2021/03/22 22:16:51;;;;;;;114.47;46.77;;;;;;;-1.49;65.95;99269.96;4200533;84;21338;-84
2021/03/22 22:23:04;;;;;;;140.77;53.77;;;;;;;-1.50;66.03;99276.42;4208764;83;21207;-84
2021/03/22 22:29:17;;;;;;;139.90;55.17;;;;;;;-1.46;66.27;99277.43;4199139;83;21522;-83
2021/03/22 22:35:42;;;;;;;157.97;61.03;;;;;;;-1.44;66.38;99273.92;4173848;83;21690;-83
2021/03/22 22:41:44;;;;;;;166.63;63.57;;;;;;;-1.50;66.59;99277.20;4194968;83;21374;-84
2021/03/22 22:47:46;;;;;;;161.13;62.17;;;;;;;-1.54;66.77;99276.73;4195925;83;21322;-83
2021/03/22 22:53:50;;;;;;;163.17;60.40;;;;;;;-1.51;66.65;99280.98;4200236;84;21354;-82
2021/03/22 22:59:52;;;;;;;149.03;59.93;;;;;;;-1.51;66.80;99289.05;4202347;83;21172;-82
2021/03/22 23:05:55;;;;;;;145.00;59.10;;;;;;;-1.44;67.77;99294.84;4192007;84;22064;-85
2021/03/22 23:12:00;;;;;;;139.97;56.47;;;;;;;-1.36;67.96;99292.85;4198448;83;21227;-83
2021/03/22 23:24:56;;;;;;;148.50;59.83;;;;;;;-1.20;67.36;99300.14;4038104;87;21221;-83
2021/03/22 23:31:39;;;;;;;176.60;67.47;;;;;;;-1.09;68.88;99308.31;4569587;76;26542;-83
2021/03/22 23:37:41;;;;;;;170.47;62.87;;;;;;;-1.09;68.83;99310.47;4507116;77;21113;-82
2021/03/22 23:43:56;;;;;;;182.50;68.87;;;;;;;-0.99;68.45;99304.14;4500033;77;21603;-83
2021/03/22 23:56:40;;;;;;;173.43;63.30;;;;;;;-1.08;69.68;99312.05;4267390;77;21161;-83
